Time;durP1;ratioP1;P1;durP2;ratioP2;P2;SDS_P1;SDS_P2;PMS_P1;PMS_P2;Temp;Humidity;BMP_temperature;BMP_pressure;BME280_temperature;BME280_humidity;BME280_pressure;Samples;Min_cycle;Max_cycle;Signal;HPM_P1;HPM_P2
2021/04/26 00:04:26;;;;;;;1999.90;999.90;;;;;;;4.11;50.20;101886.88;15255872;29;19943;-58
2021/04/26 00:12:02;;;;;;;1999.90;999.90;;;;;;;3.93;51.08;101877.88;15239832;29;20048;-59
2021/04/26 00:19:37;;;;;;;1999.90;999.90;;;;;;;3.78;51.00;101874.13;15229941;29;20516;-59
2021/04/26 00:27:16;;;;;;;1999.90;999.90;;;;;;;3.66;51.41;101866.81;15226543;29;20276;-58
2021/04/26 00:34:54;;;;;;;1999.90;999.90;;;;;;;3.51;51.88;101855.59;15213659;29;20051;-60
2021/04/26 00:42:28;;;;;;;1999.90;999.90;;;;;;;3.47;50.94;101854.44;15249323;29;20083;-59
2021/04/26 00:50:03;;;;;;;1999.90;999.90;;;;;;;3.32;52.30;101840.47;15205937;29;20153;-60
2021/04/26 00:57:42;;;;;;;1999.90;999.90;;;;;;;3.34;53.17;101839.13;15248117;29;20443;-60
2021/04/26 01:05:20;;;;;;;1999.90;999.90;;;;;;;3.26;54.32;101830.47;15247837;29;20052;-58
2021/04/26 01:13:18;;;;;;;1999.90;999.90;;;;;;;3.25;53.85;101813.09;15235986;29;20044;-60
2021/04/26 01:21:35;;;;;;;1999.90;999.90;;;;;;;3.17;54.07;101810.78;15227004;29;20040;-61
2021/04/26 01:29:17;;;;;;;1999.90;999.90;;;;;;;3.08;55.05;101810.38;15161248;29;20048;-58
2021/04/26 01:36:51;;;;;;;1999.90;999.90;;;;;;;3.05;54.10;101808.16;15246449;29;20028;-58
2021/04/26 01:44:28;;;;;;;1999.90;999.90;;;;;;;2.85;55.57;101797.69;15245226;29;20055;-59
2021/04/26 01:52:06;;;;;;;1999.90;999.90;;;;;;;2.74;55.49;101806.06;15245742;29;20048;-60
2021/04/26 01:59:49;;;;;;;1999.90;999.90;;;;;;;2.78;54.26;101802.53;15245908;29;20482;-60
2021/04/26 02:07:44;;;;;;;;;;;;;;;2.75;55.23;101803.06;15248722;29;20040;-60
2021/04/26 02:15:55;;;;;;;1999.90;999.90;;;;;;;2.57;53.40;101795.06;15246073;29;20358;-61
2021/04/26 02:23:31;;;;;;;1999.90;999.90;;;;;;;2.50;54.21;101786.13;15243633;29;20490;-58
2021/04/26 02:31:06;;;;;;;1999.90;999.90;;;;;;;2.43;54.58;101786.34;15236666;29;20128;-58
2021/04/26 02:38:46;;;;;;;1999.90;999.90;;;;;;;2.30;55.49;101790.28;15259308;29;20132;-58
2021/04/26 02:46:34;;;;;;;1999.90;999.90;;;;;;;2.33;55.59;101796.38;15243686;29;20052;-62
2021/04/26 02:54:10;;;;;;;1999.90;999.90;;;;;;;2.12;57.40;101787.78;15241804;29;20408;-61
2021/04/26 03:01:46;;;;;;;1999.90;999.90;;;;;;;2.01;56.09;101783.19;15208218;29;20127;-61
2021/04/26 03:09:24;;;;;;;1999.90;999.90;;;;;;;2.02;57.08;101784.84;15202630;29;20044;-60
2021/04/26 03:17:08;;;;;;;1999.90;999.90;;;;;;;1.98;56.41;101780.91;15200089;29;20076;-60
2021/04/26 03:25:01;;;;;;;;;;;;;;;1.86;55.97;101775.50;15236499;29;20129;-61
2021/04/26 03:32:50;;;;;;;1999.90;999.90;;;;;;;1.79;57.11;101785.00;15208085;29;19924;-59
2021/04/26 03:40:28;;;;;;;1999.90;999.90;;;;;;;1.88;56.63;101780.78;15201061;29;20092;-58
2021/04/26 03:48:08;;;;;;;1999.90;999.90;;;;;;;1.81;57.76;101780.09;15212773;29;20047;-60
2021/04/26 03:56:01;;;;;;;1999.90;999.90;;;;;;;1.94;58.02;101786.09;15217076;29;20040;-60
2021/04/26 04:03:41;;;;;;;1999.90;999.90;;;;;;;1.91;58.50;101778.34;15248940;29;20052;-61
2021/04/26 04:11:21;;;;;;;1999.90;999.90;;;;;;;2.16;57.90;101786.19;15210386;29;20040;-61
2021/04/26 04:19:15;;;;;;;1999.90;999.90;;;;;;;2.25;57.69;101781.09;15249726;29;20096;-58
2021/04/26 04:26:53;;;;;;;1999.90;999.90;;;;;;;2.47;56.89;101776.47;15206346;29;20048;-61
2021/04/26 04:34:25;;;;;;;1999.90;999.90;;;;;;;2.75;56.98;101775.50;15242395;29;20048;-59
2021/04/26 04:42:16;;;;;;;1999.90;999.90;;;;;;;3.23;55.38;101778.53;15221547;29;20064;-60
2021/04/26 04:49:49;;;;;;;1999.90;999.90;;;;;;;3.58;54.74;101769.84;15219593;29;20391;-60
2021/04/26 04:57:22;;;;;;;1999.90;999.90;;;;;;;4.05;53.26;101776.31;15209849;29;20036;-61
2021/04/26 05:05:13;;;;;;;1999.90;999.90;;;;;;;4.46;52.53;101776.63;15257211;29;20040;-60
2021/04/26 05:13:14;;;;;;;1999.90;999.90;;;;;;;4.99;52.13;101780.25;15267026;29;20076;-59
2021/04/26 05:21:04;;;;;;;1999.90;999.90;;;;;;;5.72;51.23;101780.19;15252525;29;20045;-59
2021/04/26 05:28:38;;;;;;;1999.90;999.90;;;;;;;6.17;49.29;101771.13;15252426;29;20044;-60
2021/04/26 05:36:18;;;;;;;1999.90;999.90;;;;;;;6.48;48.76;101773.84;15218372;29;20040;-60
2021/04/26 05:44:06;;;;;;;1999.90;999.90;;;;;;;8.14;44.93;101778.00;15250569;29;20040;-61
2021/04/26 05:51:48;;;;;;;1999.90;999.90;;;;;;;8.94;44.16;101783.91;15254452;29;20119;-62
2021/04/26 05:59:23;;;;;;;1999.90;999.90;;;;;;;9.82;41.40;101774.09;15273512;29;20508;-62
2021/04/26 06:07:05;;;;;;;1999.90;999.90;;;;;;;10.36;38.82;101769.88;15256289;29;20073;-61
2021/04/26 06:14:39;;;;;;;1999.90;999.90;;;;;;;10.82;38.99;101778.19;15282899;29;20042;-61
2021/04/26 06:22:10;;;;;;;1999.90;999.90;;;;;;;11.57;38.30;101786.13;15310652;29;20054;-63
2021/04/26 06:29:44;;;;;;;1999.90;999.90;;;;;;;11.92;37.63;101782.84;15303809;29;20054;-61
2021/04/26 06:37:19;;;;;;;1999.90;999.90;;;;;;;12.89;35.29;101779.19;15304568;29;20052;-63
2021/04/26 06:44:52;;;;;;;1999.90;999.90;;;;;;;13.08;36.30;101776.13;15287650;29;20054;-62
2021/04/26 06:52:30;;;;;;;1999.90;999.90;;;;;;;13.10;36.41;101773.81;15321302;29;20489;-62
2021/04/26 07:00:14;;;;;;;1999.90;999.90;;;;;;;13.34;34.76;101762.22;15305574;29;20457;-62
2021/04/26 07:07:47;;;;;;;1999.90;999.90;;;;;;;13.67;34.92;101759.81;15330908;29;20048;-62
2021/04/26 07:15:23;;;;;;;1999.90;999.90;;;;;;;12.91;35.13;101759.25;15322029;29;20043;-61
2021/04/26 07:22:58;;;;;;;1999.90;999.90;;;;;;;13.74;32.96;101753.69;15322513;29;20048;-64
2021/04/26 07:30:34;;;;;;;1999.90;999.90;;;;;;;13.31;32.85;101751.66;15304099;29;20048;-62
2021/04/26 07:38:06;;;;;;;1999.90;999.90;;;;;;;13.12;32.44;101749.09;15296289;29;20127;-60
2021/04/26 07:45:48;;;;;;;1999.90;999.90;;;;;;;15.66;31.92;101747.94;15260755;29;20123;-63
2021/04/26 07:53:20;;;;;;;1999.90;999.90;;;;;;;14.89;30.60;101746.38;15282028;29;20047;-58
2021/04/26 08:00:53;;;;;;;1999.90;999.90;;;;;;;16.19;29.57;101756.75;15237922;29;20056;-60
2021/04/26 08:08:25;;;;;;;1999.90;999.90;;;;;;;15.97;29.39;101755.13;15250244;29;20044;-62
2021/04/26 08:15:57;;;;;;;1999.90;999.90;;;;;;;16.97;29.53;101743.44;15205771;29;20053;-63
2021/04/26 08:23:30;;;;;;;1999.90;999.90;;;;;;;15.69;31.14;101735.16;15214592;29;20044;-60
2021/04/26 08:31:06;;;;;;;1999.90;999.90;;;;;;;16.38;29.79;101740.16;15250745;29;20094;-61
2021/04/26 08:38:39;;;;;;;1999.90;999.90;;;;;;;17.28;29.24;101734.38;15249304;29;20076;-61
2021/04/26 08:46:12;;;;;;;1999.90;999.90;;;;;;;18.41;24.89;101724.84;15227856;29;20056;-61
2021/04/26 08:53:44;;;;;;;1999.90;999.90;;;;;;;18.31;25.92;101738.69;15265921;29;20478;-61
2021/04/26 09:01:19;;;;;;;1999.90;999.90;;;;;;;17.39;25.73;101729.06;15248901;29;20052;-60
2021/04/26 09:08:51;;;;;;;1999.90;999.90;;;;;;;17.43;28.59;101732.03;15247501;29;20108;-63
2021/04/26 09:16:31;;;;;;;1999.90;999.90;;;;;;;15.96;26.64;101736.59;15244787;29;20044;-62
2021/04/26 09:24:12;;;;;;;1999.90;999.90;;;;;;;18.43;23.72;101732.94;15260458;29;20537;-64
2021/04/26 09:32:00;;;;;;;1999.90;999.90;;;;;;;16.95;26.11;101719.59;15244906;29;20060;-63
2021/04/26 09:39:32;;;;;;;1999.90;999.90;;;;;;;16.34;27.07;101714.66;15237149;29;20076;-57
2021/04/26 09:47:04;;;;;;;1999.90;999.90;;;;;;;18.09;26.13;101711.84;15249466;29;20044;-59
2021/04/26 09:54:37;;;;;;;1999.90;999.90;;;;;;;16.57;26.04;101703.81;15192033;29;20044;-60
2021/04/26 10:02:10;;;;;;;1999.90;999.90;;;;;;;18.01;24.56;101702.34;15242997;29;20687;-60
2021/04/26 10:09:45;;;;;;;1999.90;999.90;;;;;;;16.94;26.43;101701.03;15242621;29;20040;-59
2021/04/26 10:17:26;;;;;;;1999.90;999.90;;;;;;;16.42;24.31;101688.41;15241638;29;20166;-59
2021/04/26 10:24:59;;;;;;;1999.90;999.90;;;;;;;19.75;23.65;101679.63;15251590;29;20123;-58
2021/04/26 10:32:55;;;;;;;1999.90;999.90;;;;;;;21.66;22.07;101677.66;15212549;29;20059;-57
2021/04/26 10:40:36;;;;;;;1999.90;999.90;;;;;;;22.18;19.12;101660.44;15248137;29;20126;-58
2021/04/26 10:48:15;;;;;;;1999.90;999.90;;;;;;;16.95;28.01;101655.56;15248951;29;20040;-59
2021/04/26 10:55:54;;;;;;;1999.90;999.90;;;;;;;14.63;27.51;101634.13;15220142;29;20529;-59
2021/04/26 11:03:39;;;;;;;1999.90;999.90;;;;;;;18.88;25.34;101642.09;15221964;29;20080;-55
2021/04/26 11:11:15;;;;;;;1999.90;999.90;;;;;;;15.97;26.19;101626.47;15184357;29;20619;-55
2021/04/26 11:19:10;;;;;;;1999.90;999.90;;;;;;;19.44;25.90;101629.59;15190078;29;20570;-60
2021/04/26 11:26:42;;;;;;;1999.90;999.90;;;;;;;16.91;25.67;101625.63;15179305;29;20044;-58
2021/04/26 11:34:19;;;;;;;1999.90;999.90;;;;;;;15.94;26.42;101612.25;15202185;29;20045;-59
2021/04/26 11:41:52;;;;;;;1999.90;999.90;;;;;;;15.55;27.07;101603.19;15194432;29;20061;-58
2021/04/26 11:49:25;;;;;;;1999.90;999.90;;;;;;;14.75;28.46;101586.47;15196041;29;20119;-58
2021/04/26 11:57:06;;;;;;;1999.90;999.90;;;;;;;15.04;28.85;101587.59;15171345;29;20414;-60
2021/04/26 12:04:40;;;;;;;1999.90;999.90;;;;;;;15.06;27.88;101582.44;15193866;29;20045;-62
2021/04/26 12:12:12;;;;;;;1999.90;999.90;;;;;;;15.92;28.71;101578.81;15191336;29;20067;-59
2021/04/26 12:19:45;;;;;;;1999.90;999.90;;;;;;;15.68;29.25;101573.16;15194227;29;20139;-62
2021/04/26 12:27:19;;;;;;;1999.90;999.90;;;;;;;16.22;27.43;101570.19;15197214;29;20052;-61
2021/04/26 12:34:56;;;;;;;1999.90;999.90;;;;;;;16.39;26.86;101558.72;15206729;29;20040;-61
2021/04/26 12:42:29;;;;;;;1999.90;999.90;;;;;;;16.83;26.25;101556.94;15197383;29;20052;-62
2021/04/26 12:50:15;;;;;;;1999.90;999.90;;;;;;;19.77;23.55;101544.13;15212507;29;20134;-61
2021/04/26 12:57:46;;;;;;;1999.90;999.90;;;;;;;26.30;17.21;101541.66;15263449;29;20040;-62
2021/04/26 13:05:19;;;;;;;1999.90;999.90;;;;;;;24.85;17.88;101534.66;15262605;29;20082;-61
2021/04/26 13:13:00;;;;;;;1999.90;999.90;;;;;;;17.82;24.17;101525.16;15245739;29;20410;-61
2021/04/26 13:20:36;;;;;;;1999.90;999.90;;;;;;;15.70;25.85;101526.59;15260894;29;20048;-61
2021/04/26 13:28:07;;;;;;;1999.90;999.90;;;;;;;14.39;30.36;101511.16;15260200;29;20044;-60
2021/04/26 13:35:40;;;;;;;1999.90;999.90;;;;;;;14.09;30.84;101499.94;15263401;29;20048;-62
2021/04/26 13:43:11;;;;;;;1999.90;999.90;;;;;;;14.19;30.53;101493.13;15242358;29;20048;-55
2021/04/26 13:50:45;;;;;;;1999.90;999.90;;;;;;;15.82;27.54;101492.03;15244394;29;20052;-57
2021/04/26 13:58:19;;;;;;;1999.90;999.90;;;;;;;15.06;27.13;101478.44;15260244;29;20052;-60
2021/04/26 14:05:51;;;;;;;1999.90;999.90;;;;;;;15.42;31.37;101478.56;15205841;29;20071;-62
2021/04/26 14:13:23;;;;;;;1999.90;999.90;;;;;;;15.58;28.65;101464.66;15211653;29;20072;-61
2021/04/26 14:20:56;;;;;;;1999.90;999.90;;;;;;;15.59;28.58;101449.44;15212350;29;20052;-60
2021/04/26 14:28:28;;;;;;;1999.90;999.90;;;;;;;14.62;28.28;101435.88;15225052;29;20132;-61
2021/04/26 14:36:00;;;;;;;1999.90;999.90;;;;;;;14.66;28.80;101432.03;15224430;29;20044;-62
2021/04/26 14:43:34;;;;;;;1999.90;999.90;;;;;;;15.07;26.93;101424.69;15256582;29;20059;-59
2021/04/26 14:51:07;;;;;;;1999.90;999.90;;;;;;;14.56;29.48;101418.38;15224328;29;20466;-60
2021/04/26 14:58:38;;;;;;;1999.90;999.90;;;;;;;12.64;29.22;101408.31;15221125;29;20048;-60
2021/04/26 15:06:11;;;;;;;1999.90;999.90;;;;;;;13.78;27.36;101402.06;15221594;29;20059;-62
2021/04/26 15:13:42;;;;;;;1999.90;999.90;;;;;;;14.14;29.55;101398.69;15237977;29;20534;-62
2021/04/26 15:21:15;;;;;;;1999.90;999.90;;;;;;;13.72;30.72;101375.34;15247156;29;20048;-60
2021/04/26 15:28:47;;;;;;;1999.90;999.90;;;;;;;14.12;28.56;101377.75;15213627;29;20056;-63
2021/04/26 15:36:20;;;;;;;1999.90;999.90;;;;;;;14.50;28.49;101368.41;15218027;29;20418;-61
2021/04/26 15:43:53;;;;;;;1999.90;999.90;;;;;;;14.79;28.21;101362.66;15223881;29;20052;-63
2021/04/26 15:51:25;;;;;;;1999.90;999.90;;;;;;;13.71;28.73;101362.50;15262932;29;20058;-64
2021/04/26 15:58:56;;;;;;;1999.90;999.90;;;;;;;13.00;30.14;101360.28;15252860;29;20044;-64
2021/04/26 16:06:29;;;;;;;1999.90;999.90;;;;;;;12.87;30.09;101349.28;15238262;29;20578;-64
2021/04/26 16:14:00;;;;;;;1999.90;999.90;;;;;;;13.11;29.48;101355.16;15237976;29;20710;-63
2021/04/26 16:21:33;;;;;;;1999.90;999.90;;;;;;;12.85;29.41;101346.00;15252305;29;20064;-62
2021/04/26 16:29:04;;;;;;;1999.90;999.90;;;;;;;12.64;30.57;101337.50;15253616;29;20066;-62
2021/04/26 16:36:37;;;;;;;1999.90;999.90;;;;;;;12.81;29.85;101334.63;15242293;29;20048;-62
2021/04/26 16:44:08;;;;;;;1999.90;999.90;;;;;;;12.14;29.84;101332.41;15220562;29;20058;-64
2021/04/26 16:51:41;;;;;;;1999.90;999.90;;;;;;;11.81;29.74;101334.84;15215623;29;20056;-62
2021/04/26 16:59:13;;;;;;;1999.90;999.90;;;;;;;11.88;29.82;101332.41;15224052;29;20048;-62
2021/04/26 17:06:45;;;;;;;1999.90;999.90;;;;;;;11.88;30.48;101325.97;15251324;29;20068;-62
2021/04/26 17:14:16;;;;;;;1999.90;999.90;;;;;;;11.78;30.91;101322.31;15246093;29;20071;-63
2021/04/26 17:21:49;;;;;;;1999.90;999.90;;;;;;;11.47;32.17;101325.22;15226245;29;20056;-61
2021/04/26 17:29:20;;;;;;;1999.90;999.90;;;;;;;11.39;31.60;101325.19;15251810;29;20481;-63
2021/04/26 17:36:53;;;;;;;1999.90;999.90;;;;;;;11.09;32.10;101322.09;15252083;29;20123;-62
2021/04/26 17:44:25;;;;;;;1999.90;999.90;;;;;;;11.03;32.71;101314.19;15250898;29;20094;-62
2021/04/26 17:51:57;;;;;;;1999.90;999.90;;;;;;;10.94;32.15;101317.78;15232944;29;20158;-65
2021/04/26 17:59:29;;;;;;;1999.90;999.90;;;;;;;10.68;32.82;101322.38;15185609;29;20056;-63
2021/04/26 18:07:01;;;;;;;1999.90;999.90;;;;;;;10.77;34.02;101317.69;15232267;29;20056;-64
2021/04/26 18:14:33;;;;;;;1999.90;999.90;;;;;;;10.31;34.70;101321.63;15231264;29;20119;-64
2021/04/26 18:22:06;;;;;;;1999.90;999.90;;;;;;;10.57;34.99;101321.81;15232285;29;20052;-63
2021/04/26 18:29:37;;;;;;;1999.90;999.90;;;;;;;10.60;35.95;101328.72;15215020;29;20048;-63
2021/04/26 18:37:10;;;;;;;1999.90;999.90;;;;;;;10.48;36.39;101326.50;15230049;29;20052;-63
2021/04/26 18:44:41;;;;;;;1999.90;999.90;;;;;;;10.38;36.48;101338.75;15251337;29;20052;-62
2021/04/26 18:52:14;;;;;;;1999.90;999.90;;;;;;;10.25;38.04;101345.22;15238546;29;20107;-61
2021/04/26 18:59:45;;;;;;;1999.90;999.90;;;;;;;10.04;39.26;101336.47;15255220;29;20048;-61
2021/04/26 19:07:18;;;;;;;1999.90;999.90;;;;;;;9.74;41.48;101351.09;15237828;29;20478;-64
2021/04/26 19:14:49;;;;;;;1999.90;999.90;;;;;;;9.07;39.08;101348.03;15255096;29;20044;-63
2021/04/26 19:22:21;;;;;;;1999.90;999.90;;;;;;;9.34;39.31;101350.00;15253223;29;20429;-65
2021/04/26 19:29:53;;;;;;;1999.90;999.90;;;;;;;9.31;38.92;101357.00;15231583;29;20060;-63
2021/04/26 19:37:25;;;;;;;1999.90;999.90;;;;;;;8.49;39.87;101354.06;15215957;29;20044;-64
2021/04/26 19:44:57;;;;;;;1999.90;999.90;;;;;;;8.52;40.62;101359.84;15237796;29;20180;-64
2021/04/26 19:52:30;;;;;;;1999.90;999.90;;;;;;;8.55;40.94;101364.00;15239996;29;20524;-63
2021/04/26 20:00:06;;;;;;;1999.90;999.90;;;;;;;8.47;41.96;101367.47;15238285;29;20056;-62
2021/04/26 20:07:42;;;;;;;1999.90;999.90;;;;;;;8.21;43.17;101372.53;15236297;29;20044;-62
2021/04/26 20:15:15;;;;;;;1999.90;999.90;;;;;;;8.17;44.08;101364.00;15251694;29;20075;-62
2021/04/26 20:22:49;;;;;;;1999.90;999.90;;;;;;;7.99;44.48;101365.63;15252777;29;20056;-61
2021/04/26 20:30:23;;;;;;;1999.90;999.90;;;;;;;7.88;45.08;101371.63;15253178;29;20049;-61
2021/04/26 20:37:56;;;;;;;1999.90;999.90;;;;;;;7.88;45.25;101363.31;15220205;29;20049;-61
2021/04/26 20:45:28;;;;;;;;;;;;;;;7.71;45.99;101367.44;15252870;29;20131;-61
2021/04/26 20:53:01;;;;;;;1999.90;999.90;;;;;;;7.57;47.13;101366.50;15260557;29;20345;-61
2021/04/26 21:00:34;;;;;;;1999.90;999.90;;;;;;;7.65;46.80;101362.22;15230608;29;20044;-61
2021/04/26 21:08:07;;;;;;;1999.90;999.90;;;;;;;7.72;46.79;101373.81;15245378;29;20051;-62
2021/04/26 21:15:38;;;;;;;1999.90;999.90;;;;;;;7.36;47.96;101362.31;15262117;29;20135;-61
2021/04/26 21:23:10;;;;;;;1999.90;999.90;;;;;;;7.27;48.47;101376.00;15244804;29;20084;-62
2021/04/26 21:30:42;;;;;;;1999.90;999.90;;;;;;;7.08;48.89;101364.81;15244733;29;20071;-61
2021/04/26 21:38:14;;;;;;;1999.90;999.90;;;;;;;7.15;49.35;101350.63;15244093;29;20046;-61
2021/04/26 21:45:46;;;;;;;1999.90;999.90;;;;;;;6.84;49.92;101350.09;15248641;29;20044;-61
2021/04/26 21:53:19;;;;;;;1999.90;999.90;;;;;;;6.55;49.67;101344.53;15250391;29;20052;-61
2021/04/26 22:00:51;;;;;;;1999.90;999.90;;;;;;;6.75;50.59;101354.63;15233133;29;20067;-61
2021/04/26 22:08:23;;;;;;;1999.90;999.90;;;;;;;6.66;50.68;101351.66;15251004;29;20115;-60
2021/04/26 22:15:55;;;;;;;1999.90;999.90;;;;;;;6.70;51.38;101360.25;15239293;29;20047;-61
2021/04/26 22:23:27;;;;;;;1999.90;999.90;;;;;;;6.50;51.07;101361.25;15256954;29;20044;-61
2021/04/26 22:30:59;;;;;;;1999.90;999.90;;;;;;;6.51;51.22;101360.13;15241367;29;20051;-63
2021/04/26 22:38:31;;;;;;;1999.90;999.90;;;;;;;6.27;51.97;101360.03;15258266;29;20045;-60
2021/04/26 22:46:03;;;;;;;1999.90;999.90;;;;;;;6.29;51.50;101353.09;15252691;29;20055;-62
2021/04/26 22:53:36;;;;;;;1999.90;999.90;;;;;;;6.18;52.13;101351.50;15224441;29;20058;-61
2021/04/26 23:01:07;;;;;;;1999.90;999.90;;;;;;;6.00;52.78;101346.66;15223992;29;20044;-61
2021/04/26 23:08:41;;;;;;;1999.90;999.90;;;;;;;5.70;53.41;101339.31;15239737;29;20044;-62
2021/04/26 23:16:13;;;;;;;1999.90;999.90;;;;;;;5.59;54.01;101327.47;15237329;29;20040;-62
2021/04/26 23:23:45;;;;;;;1999.90;999.90;;;;;;;5.58;54.55;101324.97;15254217;29;20048;-60
2021/04/26 23:31:16;;;;;;;1999.90;999.90;;;;;;;5.41;55.38;101320.63;15255231;29;20048;-62
2021/04/26 23:38:49;;;;;;;1999.90;999.90;;;;;;;5.47;54.25;101319.50;15237914;29;20079;-62
2021/04/26 23:46:20;;;;;;;1999.90;999.90;;;;;;;5.12;56.05;101314.94;15237403;29;20047;-62
2021/04/26 23:53:53;;;;;;;1999.90;999.90;;;;;;;4.98;56.24;101310.28;15254508;29;20079;-61
